sensor_id;sensor_type;location;lat;lon;timestamp;temperature;humidity
41694;DHT22;27377;50.666;9.150;2022-10-16T00:01:56;14.90;99.90
41694;DHT22;27377;50.666;9.150;2022-10-16T00:04:21;14.90;99.90
41694;DHT22;27377;50.666;9.150;2022-10-16T00:06:47;14.90;99.90
41694;DHT22;27377;50.666;9.150;2022-10-16T00:09:12;14.90;99.90
41694;DHT22;27377;50.666;9.150;2022-10-16T00:11:39;14.90;99.90
41694;DHT22;27377;50.666;9.150;2022-10-16T00:14:08;14.90;99.90
41694;DHT22;27377;50.666;9.150;2022-10-16T00:16:35;15.00;99.90
41694;DHT22;27377;50.666;9.150;2022-10-16T00:19:01;14.90;99.90
41694;DHT22;27377;50.666;9.150;2022-10-16T00:21:28;14.90;99.90
41694;DHT22;27377;50.666;9.150;2022-10-16T00:24:05;14.90;99.90
41694;DHT22;27377;50.666;9.150;2022-10-16T00:26:32;14.90;99.90
41694;DHT22;27377;50.666;9.150;2022-10-16T00:28:58;14.90;99.90
41694;DHT22;27377;50.666;9.150;2022-10-16T00:31:24;14.90;99.90
41694;DHT22;27377;50.666;9.150;2022-10-16T00:33:50;14.80;99.90
41694;DHT22;27377;50.666;9.150;2022-10-16T00:36:19;14.90;99.90
41694;DHT22;27377;50.666;9.150;2022-10-16T00:38:45;14.90;99.90
41694;DHT22;27377;50.666;9.150;2022-10-16T00:41:13;14.80;99.90
41694;DHT22;27377;50.666;9.150;2022-10-16T00:43:48;14.90;99.90
41694;DHT22;27377;50.666;9.150;2022-10-16T00:46:18;14.80;99.90
41694;DHT22;27377;50.666;9.150;2022-10-16T00:48:55;14.80;99.90
41694;DHT22;27377;50.666;9.150;2022-10-16T00:51:27;14.80;99.90
41694;DHT22;27377;50.666;9.150;2022-10-16T00:53:55;14.80;99.90
41694;DHT22;27377;50.666;9.150;2022-10-16T00:56:20;14.80;99.90
41694;DHT22;27377;50.666;9.150;2022-10-16T00:58:46;14.80;99.90
41694;DHT22;27377;50.666;9.150;2022-10-16T01:01:12;14.80;99.90
41694;DHT22;27377;50.666;9.150;2022-10-16T01:03:37;14.80;99.90
41694;DHT22;27377;50.666;9.150;2022-10-16T01:06:06;14.80;99.90
41694;DHT22;27377;50.666;9.150;2022-10-16T01:08:53;14.70;99.90
41694;DHT22;27377;50.666;9.150;2022-10-16T01:11:36;14.70;99.90
41694;DHT22;27377;50.666;9.150;2022-10-16T01:14:26;14.70;99.90
41694;DHT22;27377;50.666;9.150;2022-10-16T01:17:05;14.70;99.90
41694;DHT22;27377;50.666;9.150;2022-10-16T01:20:00;14.70;99.90
41694;DHT22;27377;50.666;9.150;2022-10-16T01:22:38;14.70;99.90
41694;DHT22;27377;50.666;9.150;2022-10-16T01:25:09;14.70;99.90
41694;DHT22;27377;50.666;9.150;2022-10-16T01:27:37;14.70;99.90
41694;DHT22;27377;50.666;9.150;2022-10-16T01:30:11;14.70;99.90
41694;DHT22;27377;50.666;9.150;2022-10-16T01:33:01;14.70;99.90
41694;DHT22;27377;50.666;9.150;2022-10-16T01:35:38;14.70;99.90
41694;DHT22;27377;50.666;9.150;2022-10-16T01:38:42;14.70;99.90
41694;DHT22;27377;50.666;9.150;2022-10-16T01:41:19;14.70;99.90
41694;DHT22;27377;50.666;9.150;2022-10-16T01:43:49;14.70;99.90
41694;DHT22;27377;50.666;9.150;2022-10-16T01:46:18;14.70;99.90
41694;DHT22;27377;50.666;9.150;2022-10-16T01:48:46;14.70;99.90
41694;DHT22;27377;50.666;9.150;2022-10-16T01:51:13;14.70;99.90
41694;DHT22;27377;50.666;9.150;2022-10-16T01:53:42;14.70;99.90
41694;DHT22;27377;50.666;9.150;2022-10-16T01:56:12;14.60;99.90
41694;DHT22;27377;50.666;9.150;2022-10-16T01:58:43;14.60;99.90
41694;DHT22;27377;50.666;9.150;2022-10-16T02:01:11;14.60;99.90
41694;DHT22;27377;50.666;9.150;2022-10-16T02:03:40;14.60;99.90
41694;DHT22;27377;50.666;9.150;2022-10-16T02:06:07;14.60;99.90
41694;DHT22;27377;50.666;9.150;2022-10-16T02:08:33;14.60;99.90
41694;DHT22;27377;50.666;9.150;2022-10-16T02:11:00;14.70;99.90
41694;DHT22;27377;50.666;9.150;2022-10-16T02:16:03;14.60;99.90
41694;DHT22;27377;50.666;9.150;2022-10-16T02:18:29;14.60;99.90
41694;DHT22;27377;50.666;9.150;2022-10-16T02:21:19;14.60;99.90
41694;DHT22;27377;50.666;9.150;2022-10-16T02:29:13;14.60;99.90
41694;DHT22;27377;50.666;9.150;2022-10-16T02:31:44;14.60;99.90
41694;DHT22;27377;50.666;9.150;2022-10-16T02:34:10;14.60;99.90
41694;DHT22;27377;50.666;9.150;2022-10-16T02:36:38;14.60;99.90
41694;DHT22;27377;50.666;9.150;2022-10-16T02:39:04;14.60;99.90
41694;DHT22;27377;50.666;9.150;2022-10-16T02:41:31;14.60;99.90
41694;DHT22;27377;50.666;9.150;2022-10-16T02:43:57;14.60;99.90
41694;DHT22;27377;50.666;9.150;2022-10-16T02:46:22;14.60;99.90
41694;DHT22;27377;50.666;9.150;2022-10-16T02:48:48;14.60;99.90
41694;DHT22;27377;50.666;9.150;2022-10-16T02:51:13;14.60;99.90
41694;DHT22;27377;50.666;9.150;2022-10-16T02:53:39;14.60;99.90
41694;DHT22;27377;50.666;9.150;2022-10-16T02:56:04;14.60;99.90
41694;DHT22;27377;50.666;9.150;2022-10-16T02:58:30;14.60;99.90
41694;DHT22;27377;50.666;9.150;2022-10-16T03:00:56;14.60;99.90
41694;DHT22;27377;50.666;9.150;2022-10-16T03:03:22;14.60;99.90
41694;DHT22;27377;50.666;9.150;2022-10-16T03:05:47;14.60;99.90
41694;DHT22;27377;50.666;9.150;2022-10-16T03:08:13;14.60;99.90
41694;DHT22;27377;50.666;9.150;2022-10-16T03:10:39;14.60;99.90
41694;DHT22;27377;50.666;9.150;2022-10-16T03:13:05;14.60;99.90
41694;DHT22;27377;50.666;9.150;2022-10-16T03:15:30;14.60;99.90
41694;DHT22;27377;50.666;9.150;2022-10-16T03:17:59;14.60;99.90
41694;DHT22;27377;50.666;9.150;2022-10-16T03:20:26;14.60;99.90
41694;DHT22;27377;50.666;9.150;2022-10-16T03:22:51;14.60;99.90
41694;DHT22;27377;50.666;9.150;2022-10-16T03:25:17;14.60;99.90
41694;DHT22;27377;50.666;9.150;2022-10-16T03:27:43;14.60;99.90
41694;DHT22;27377;50.666;9.150;2022-10-16T03:30:09;14.60;99.90
41694;DHT22;27377;50.666;9.150;2022-10-16T03:32:34;14.60;99.90
41694;DHT22;27377;50.666;9.150;2022-10-16T03:35:00;14.60;99.90
41694;DHT22;27377;50.666;9.150;2022-10-16T03:37:26;14.60;99.90
41694;DHT22;27377;50.666;9.150;2022-10-16T03:39:52;14.60;99.90
41694;DHT22;27377;50.666;9.150;2022-10-16T03:42:17;14.60;99.90
41694;DHT22;27377;50.666;9.150;2022-10-16T03:44:43;14.60;99.90
41694;DHT22;27377;50.666;9.150;2022-10-16T03:47:08;14.60;99.90
41694;DHT22;27377;50.666;9.150;2022-10-16T03:49:34;14.60;99.90
41694;DHT22;27377;50.666;9.150;2022-10-16T03:51:59;14.70;99.90
41694;DHT22;27377;50.666;9.150;2022-10-16T03:54:25;14.70;99.90
41694;DHT22;27377;50.666;9.150;2022-10-16T03:56:50;14.60;99.90
41694;DHT22;27377;50.666;9.150;2022-10-16T03:59:16;14.60;99.90
41694;DHT22;27377;50.666;9.150;2022-10-16T04:01:42;14.60;99.90
41694;DHT22;27377;50.666;9.150;2022-10-16T04:04:07;14.60;99.90
41694;DHT22;27377;50.666;9.150;2022-10-16T04:06:33;14.60;99.90
41694;DHT22;27377;50.666;9.150;2022-10-16T04:08:58;14.60;99.90
41694;DHT22;27377;50.666;9.150;2022-10-16T04:11:24;14.60;99.90
41694;DHT22;27377;50.666;9.150;2022-10-16T04:13:49;14.60;99.90
41694;DHT22;27377;50.666;9.150;2022-10-16T04:16:15;14.60;99.90
41694;DHT22;27377;50.666;9.150;2022-10-16T04:18:40;14.60;99.90
41694;DHT22;27377;50.666;9.150;2022-10-16T04:21:06;14.60;99.90
41694;DHT22;27377;50.666;9.150;2022-10-16T04:23:33;14.60;99.90
41694;DHT22;27377;50.666;9.150;2022-10-16T04:25:59;14.60;99.90
41694;DHT22;27377;50.666;9.150;2022-10-16T04:28:25;14.60;99.90
41694;DHT22;27377;50.666;9.150;2022-10-16T04:30:50;14.60;99.90
41694;DHT22;27377;50.666;9.150;2022-10-16T04:33:16;14.60;99.90
41694;DHT22;27377;50.666;9.150;2022-10-16T04:35:41;14.60;99.90
41694;DHT22;27377;50.666;9.150;2022-10-16T04:38:07;14.50;99.90
41694;DHT22;27377;50.666;9.150;2022-10-16T04:40:32;14.40;99.90
41694;DHT22;27377;50.666;9.150;2022-10-16T04:42:59;14.40;99.90
41694;DHT22;27377;50.666;9.150;2022-10-16T04:45:25;14.30;99.90
41694;DHT22;27377;50.666;9.150;2022-10-16T04:47:50;14.30;99.90
41694;DHT22;27377;50.666;9.150;2022-10-16T04:50:16;14.20;99.90
41694;DHT22;27377;50.666;9.150;2022-10-16T04:52:41;14.20;99.90
41694;DHT22;27377;50.666;9.150;2022-10-16T04:55:07;14.20;99.90
41694;DHT22;27377;50.666;9.150;2022-10-16T04:57:33;14.20;99.90
41694;DHT22;27377;50.666;9.150;2022-10-16T04:59:59;14.20;99.90
41694;DHT22;27377;50.666;9.150;2022-10-16T05:02:24;14.20;99.90
41694;DHT22;27377;50.666;9.150;2022-10-16T05:04:51;14.20;99.90
41694;DHT22;27377;50.666;9.150;2022-10-16T05:07:16;14.20;99.90
41694;DHT22;27377;50.666;9.150;2022-10-16T05:09:42;14.20;99.90
41694;DHT22;27377;50.666;9.150;2022-10-16T05:12:08;14.20;99.90
41694;DHT22;27377;50.666;9.150;2022-10-16T05:14:33;14.20;99.90
41694;DHT22;27377;50.666;9.150;2022-10-16T05:16:59;14.20;99.90
41694;DHT22;27377;50.666;9.150;2022-10-16T05:19:25;14.10;99.90
41694;DHT22;27377;50.666;9.150;2022-10-16T05:21:51;14.10;99.90
41694;DHT22;27377;50.666;9.150;2022-10-16T05:24:16;14.10;99.90
41694;DHT22;27377;50.666;9.150;2022-10-16T05:26:42;14.10;99.90
41694;DHT22;27377;50.666;9.150;2022-10-16T05:29:08;14.10;99.90
41694;DHT22;27377;50.666;9.150;2022-10-16T05:31:34;14.10;99.90
41694;DHT22;27377;50.666;9.150;2022-10-16T05:34:00;14.00;99.90
41694;DHT22;27377;50.666;9.150;2022-10-16T05:36:26;14.10;99.90
41694;DHT22;27377;50.666;9.150;2022-10-16T05:38:51;14.00;99.90
41694;DHT22;27377;50.666;9.150;2022-10-16T05:41:17;14.00;99.90
41694;DHT22;27377;50.666;9.150;2022-10-16T05:43:47;14.00;99.90
41694;DHT22;27377;50.666;9.150;2022-10-16T05:46:13;14.00;99.90
41694;DHT22;27377;50.666;9.150;2022-10-16T05:48:39;14.00;99.90
41694;DHT22;27377;50.666;9.150;2022-10-16T05:51:06;14.00;99.90
41694;DHT22;27377;50.666;9.150;2022-10-16T05:53:34;14.00;99.90
41694;DHT22;27377;50.666;9.150;2022-10-16T05:56:00;14.00;99.90
41694;DHT22;27377;50.666;9.150;2022-10-16T05:58:30;14.00;99.90
41694;DHT22;27377;50.666;9.150;2022-10-16T06:01:04;14.00;99.90
41694;DHT22;27377;50.666;9.150;2022-10-16T06:03:30;14.00;99.90
41694;DHT22;27377;50.666;9.150;2022-10-16T06:05:55;14.00;99.90
41694;DHT22;27377;50.666;9.150;2022-10-16T06:08:22;14.00;99.90
41694;DHT22;27377;50.666;9.150;2022-10-16T06:10:49;14.00;99.90
41694;DHT22;27377;50.666;9.150;2022-10-16T06:13:25;14.00;99.90
41694;DHT22;27377;50.666;9.150;2022-10-16T06:15:50;14.00;99.90
41694;DHT22;27377;50.666;9.150;2022-10-16T06:18:16;14.10;99.90
41694;DHT22;27377;50.666;9.150;2022-10-16T06:20:41;14.00;99.90
41694;DHT22;27377;50.666;9.150;2022-10-16T06:23:07;14.10;99.90
41694;DHT22;27377;50.666;9.150;2022-10-16T06:25:33;14.10;99.90
41694;DHT22;27377;50.666;9.150;2022-10-16T06:27:59;14.10;99.90
41694;DHT22;27377;50.666;9.150;2022-10-16T06:30:24;14.10;99.90
41694;DHT22;27377;50.666;9.150;2022-10-16T06:32:50;14.10;99.90
41694;DHT22;27377;50.666;9.150;2022-10-16T06:35:15;14.10;99.90
41694;DHT22;27377;50.666;9.150;2022-10-16T06:37:41;14.10;99.90
41694;DHT22;27377;50.666;9.150;2022-10-16T06:40:07;14.10;99.90
41694;DHT22;27377;50.666;9.150;2022-10-16T06:42:32;14.10;99.90
41694;DHT22;27377;50.666;9.150;2022-10-16T06:44:58;14.10;99.90
41694;DHT22;27377;50.666;9.150;2022-10-16T06:47:24;14.10;99.90
41694;DHT22;27377;50.666;9.150;2022-10-16T06:49:49;14.20;99.90
41694;DHT22;27377;50.666;9.150;2022-10-16T06:52:15;14.20;99.90
41694;DHT22;27377;50.666;9.150;2022-10-16T06:54:41;14.20;99.90
41694;DHT22;27377;50.666;9.150;2022-10-16T06:57:06;14.20;99.90
41694;DHT22;27377;50.666;9.150;2022-10-16T06:59:32;14.20;99.90
41694;DHT22;27377;50.666;9.150;2022-10-16T07:01:57;14.20;99.90
41694;DHT22;27377;50.666;9.150;2022-10-16T07:04:23;14.30;99.90
41694;DHT22;27377;50.666;9.150;2022-10-16T07:06:49;14.30;99.90
41694;DHT22;27377;50.666;9.150;2022-10-16T07:09:14;14.30;99.90
41694;DHT22;27377;50.666;9.150;2022-10-16T07:11:40;14.30;99.90
41694;DHT22;27377;50.666;9.150;2022-10-16T07:14:17;14.30;99.90
41694;DHT22;27377;50.666;9.150;2022-10-16T07:16:43;14.30;99.90
41694;DHT22;27377;50.666;9.150;2022-10-16T07:19:09;14.30;99.90
41694;DHT22;27377;50.666;9.150;2022-10-16T07:21:37;14.30;99.90
41694;DHT22;27377;50.666;9.150;2022-10-16T07:24:04;14.40;99.90
41694;DHT22;27377;50.666;9.150;2022-10-16T07:26:32;14.40;99.90
41694;DHT22;27377;50.666;9.150;2022-10-16T07:28:58;14.40;99.90
41694;DHT22;27377;50.666;9.150;2022-10-16T07:31:25;14.40;99.90
41694;DHT22;27377;50.666;9.150;2022-10-16T07:33:50;14.40;99.90
41694;DHT22;27377;50.666;9.150;2022-10-16T07:36:19;14.40;99.90
41694;DHT22;27377;50.666;9.150;2022-10-16T07:38:46;14.40;99.90
41694;DHT22;27377;50.666;9.150;2022-10-16T07:41:14;14.40;99.90
41694;DHT22;27377;50.666;9.150;2022-10-16T07:43:48;14.40;99.90
41694;DHT22;27377;50.666;9.150;2022-10-16T07:46:14;14.40;99.90
41694;DHT22;27377;50.666;9.150;2022-10-16T07:48:41;14.50;99.90
41694;DHT22;27377;50.666;9.150;2022-10-16T07:51:11;14.50;99.90
41694;DHT22;27377;50.666;9.150;2022-10-16T07:53:37;14.50;99.90
41694;DHT22;27377;50.666;9.150;2022-10-16T07:56:04;14.50;99.90
41694;DHT22;27377;50.666;9.150;2022-10-16T07:58:31;14.50;99.90
41694;DHT22;27377;50.666;9.150;2022-10-16T08:00:57;14.50;99.90
41694;DHT22;27377;50.666;9.150;2022-10-16T08:03:24;14.50;99.90
41694;DHT22;27377;50.666;9.150;2022-10-16T08:05:50;14.50;99.90
41694;DHT22;27377;50.666;9.150;2022-10-16T08:08:17;14.50;99.90
41694;DHT22;27377;50.666;9.150;2022-10-16T08:10:43;14.50;99.90
41694;DHT22;27377;50.666;9.150;2022-10-16T08:13:09;14.50;99.90
41694;DHT22;27377;50.666;9.150;2022-10-16T08:15:34;14.50;99.90
41694;DHT22;27377;50.666;9.150;2022-10-16T08:18:02;14.60;99.90
41694;DHT22;27377;50.666;9.150;2022-10-16T08:20:29;14.50;99.90
41694;DHT22;27377;50.666;9.150;2022-10-16T08:22:55;14.50;99.90
41694;DHT22;27377;50.666;9.150;2022-10-16T08:25:25;14.60;99.90
41694;DHT22;27377;50.666;9.150;2022-10-16T08:27:51;14.50;99.90
41694;DHT22;27377;50.666;9.150;2022-10-16T08:30:20;14.60;99.90
41694;DHT22;27377;50.666;9.150;2022-10-16T08:32:46;14.60;99.90
41694;DHT22;27377;50.666;9.150;2022-10-16T08:35:12;14.60;99.90
41694;DHT22;27377;50.666;9.150;2022-10-16T08:37:38;14.60;99.90
41694;DHT22;27377;50.666;9.150;2022-10-16T08:40:18;14.60;99.90
41694;DHT22;27377;50.666;9.150;2022-10-16T08:48:14;14.70;99.90
41694;DHT22;27377;50.666;9.150;2022-10-16T08:50:41;14.70;99.90
41694;DHT22;27377;50.666;9.150;2022-10-16T08:53:09;14.70;99.90
41694;DHT22;27377;50.666;9.150;2022-10-16T08:55:47;14.70;99.90
41694;DHT22;27377;50.666;9.150;2022-10-16T08:58:27;14.70;99.90
41694;DHT22;27377;50.666;9.150;2022-10-16T09:00:57;14.70;99.90
41694;DHT22;27377;50.666;9.150;2022-10-16T09:11:36;14.80;99.90
41694;DHT22;27377;50.666;9.150;2022-10-16T09:16:51;14.90;99.90
41694;DHT22;27377;50.666;9.150;2022-10-16T09:19:29;14.90;99.90
41694;DHT22;27377;50.666;9.150;2022-10-16T09:21:56;14.90;99.90
41694;DHT22;27377;50.666;9.150;2022-10-16T09:24:25;15.00;99.90
41694;DHT22;27377;50.666;9.150;2022-10-16T09:26:50;15.00;99.90
41694;DHT22;27377;50.666;9.150;2022-10-16T09:29:18;15.00;99.90
41694;DHT22;27377;50.666;9.150;2022-10-16T09:31:50;15.10;99.90
41694;DHT22;27377;50.666;9.150;2022-10-16T09:36:56;15.10;99.90
41694;DHT22;27377;50.666;9.150;2022-10-16T09:39:22;15.10;99.90
41694;DHT22;27377;50.666;9.150;2022-10-16T09:41:48;15.10;99.90
41694;DHT22;27377;50.666;9.150;2022-10-16T09:44:29;15.10;99.90
41694;DHT22;27377;50.666;9.150;2022-10-16T09:47:15;15.10;99.90
41694;DHT22;27377;50.666;9.150;2022-10-16T09:50:01;15.20;99.90
41694;DHT22;27377;50.666;9.150;2022-10-16T09:52:31;15.20;99.90
41694;DHT22;27377;50.666;9.150;2022-10-16T09:54:59;15.20;99.90
41694;DHT22;27377;50.666;9.150;2022-10-16T09:57:26;15.20;99.90
41694;DHT22;27377;50.666;9.150;2022-10-16T09:59:56;15.30;99.90
41694;DHT22;27377;50.666;9.150;2022-10-16T10:02:31;15.30;99.90
41694;DHT22;27377;50.666;9.150;2022-10-16T10:04:59;15.30;99.90
41694;DHT22;27377;50.666;9.150;2022-10-16T10:07:26;15.30;99.90
41694;DHT22;27377;50.666;9.150;2022-10-16T10:09:53;15.30;99.90
41694;DHT22;27377;50.666;9.150;2022-10-16T10:12:21;15.30;99.90
41694;DHT22;27377;50.666;9.150;2022-10-16T10:14:57;15.30;99.90
41694;DHT22;27377;50.666;9.150;2022-10-16T10:17:24;15.30;99.90
41694;DHT22;27377;50.666;9.150;2022-10-16T10:19:51;15.30;99.90
41694;DHT22;27377;50.666;9.150;2022-10-16T10:22:25;15.30;99.90
41694;DHT22;27377;50.666;9.150;2022-10-16T10:24:55;15.30;99.90
41694;DHT22;27377;50.666;9.150;2022-10-16T10:27:27;15.30;99.90
41694;DHT22;27377;50.666;9.150;2022-10-16T10:30:06;15.30;99.90
41694;DHT22;27377;50.666;9.150;2022-10-16T10:47:06;15.40;99.90
41694;DHT22;27377;50.666;9.150;2022-10-16T10:52:56;15.50;99.90
41694;DHT22;27377;50.666;9.150;2022-10-16T11:01:25;15.60;99.90
41694;DHT22;27377;50.666;9.150;2022-10-16T11:06:34;15.60;99.90
41694;DHT22;27377;50.666;9.150;2022-10-16T11:09:11;15.60;99.90
41694;DHT22;27377;50.666;9.150;2022-10-16T11:11:43;15.70;99.90
41694;DHT22;27377;50.666;9.150;2022-10-16T11:14:30;15.70;99.90
41694;DHT22;27377;50.666;9.150;2022-10-16T11:17:04;15.70;99.90
41694;DHT22;27377;50.666;9.150;2022-10-16T11:19:39;15.70;99.90
41694;DHT22;27377;50.666;9.150;2022-10-16T11:25:24;15.70;99.90
41694;DHT22;27377;50.666;9.150;2022-10-16T11:30:31;15.80;99.90
41694;DHT22;27377;50.666;9.150;2022-10-16T11:35:47;15.70;99.90
41694;DHT22;27377;50.666;9.150;2022-10-16T11:41:18;15.70;99.90
41694;DHT22;27377;50.666;9.150;2022-10-16T11:44:15;15.80;99.90
41694;DHT22;27377;50.666;9.150;2022-10-16T11:46:50;15.80;99.90
41694;DHT22;27377;50.666;9.150;2022-10-16T11:49:21;15.80;99.90
41694;DHT22;27377;50.666;9.150;2022-10-16T11:54:30;15.90;99.90
41694;DHT22;27377;50.666;9.150;2022-10-16T11:57:02;16.00;99.90
41694;DHT22;27377;50.666;9.150;2022-10-16T11:59:40;16.00;99.90
41694;DHT22;27377;50.666;9.150;2022-10-16T12:02:23;16.00;99.90
41694;DHT22;27377;50.666;9.150;2022-10-16T12:05:11;16.00;99.90
41694;DHT22;27377;50.666;9.150;2022-10-16T12:08:05;16.10;99.90
41694;DHT22;27377;50.666;9.150;2022-10-16T12:10:32;16.10;99.90
41694;DHT22;27377;50.666;9.150;2022-10-16T12:13:03;16.00;99.90
41694;DHT22;27377;50.666;9.150;2022-10-16T12:15:32;16.00;99.90
41694;DHT22;27377;50.666;9.150;2022-10-16T12:17:59;16.00;99.90
41694;DHT22;27377;50.666;9.150;2022-10-16T12:20:27;16.10;99.90
41694;DHT22;27377;50.666;9.150;2022-10-16T12:23:06;16.10;99.90
41694;DHT22;27377;50.666;9.150;2022-10-16T12:25:34;16.20;99.90
41694;DHT22;27377;50.666;9.150;2022-10-16T12:28:04;16.30;99.90
41694;DHT22;27377;50.666;9.150;2022-10-16T12:30:37;16.30;99.90
41694;DHT22;27377;50.666;9.150;2022-10-16T12:33:18;16.30;99.90
41694;DHT22;27377;50.666;9.150;2022-10-16T12:35:46;16.30;99.90
41694;DHT22;27377;50.666;9.150;2022-10-16T12:38:20;16.30;99.90
41694;DHT22;27377;50.666;9.150;2022-10-16T12:40:57;16.30;99.90
41694;DHT22;27377;50.666;9.150;2022-10-16T12:43:27;16.30;99.90
41694;DHT22;27377;50.666;9.150;2022-10-16T12:46:23;16.30;99.90
41694;DHT22;27377;50.666;9.150;2022-10-16T12:48:49;16.30;99.90
41694;DHT22;27377;50.666;9.150;2022-10-16T12:56:49;16.20;99.90
41694;DHT22;27377;50.666;9.150;2022-10-16T12:59:32;16.20;99.90
41694;DHT22;27377;50.666;9.150;2022-10-16T13:02:29;16.20;99.90
41694;DHT22;27377;50.666;9.150;2022-10-16T13:14:01;16.20;99.90
41694;DHT22;27377;50.666;9.150;2022-10-16T13:30:20;16.20;99.90
41694;DHT22;27377;50.666;9.150;2022-10-16T13:32:48;16.20;99.90
41694;DHT22;27377;50.666;9.150;2022-10-16T13:35:28;16.20;99.90
41694;DHT22;27377;50.666;9.150;2022-10-16T13:38:12;16.20;99.90
41694;DHT22;27377;50.666;9.150;2022-10-16T13:40:52;16.20;99.90
41694;DHT22;27377;50.666;9.150;2022-10-16T13:46:00;16.20;99.90
41694;DHT22;27377;50.666;9.150;2022-10-16T13:48:27;16.20;99.90
41694;DHT22;27377;50.666;9.150;2022-10-16T13:51:10;16.20;99.90
41694;DHT22;27377;50.666;9.150;2022-10-16T13:53:37;16.20;99.90
41694;DHT22;27377;50.666;9.150;2022-10-16T13:56:09;16.20;99.90
41694;DHT22;27377;50.666;9.150;2022-10-16T13:58:36;16.20;99.90
41694;DHT22;27377;50.666;9.150;2022-10-16T14:01:04;16.20;99.90
41694;DHT22;27377;50.666;9.150;2022-10-16T14:03:31;16.20;99.90
41694;DHT22;27377;50.666;9.150;2022-10-16T14:06:02;16.20;99.90
41694;DHT22;27377;50.666;9.150;2022-10-16T14:08:29;16.30;99.90
41694;DHT22;27377;50.666;9.150;2022-10-16T14:10:57;16.30;99.90
41694;DHT22;27377;50.666;9.150;2022-10-16T14:13:37;16.30;99.90
41694;DHT22;27377;50.666;9.150;2022-10-16T14:16:16;16.30;99.90
41694;DHT22;27377;50.666;9.150;2022-10-16T14:18:46;16.30;99.90
41694;DHT22;27377;50.666;9.150;2022-10-16T14:21:15;16.30;99.90
41694;DHT22;27377;50.666;9.150;2022-10-16T14:23:42;16.30;99.90
41694;DHT22;27377;50.666;9.150;2022-10-16T14:28:39;16.30;99.90
41694;DHT22;27377;50.666;9.150;2022-10-16T14:31:34;16.30;99.90
41694;DHT22;27377;50.666;9.150;2022-10-16T14:34:02;16.30;99.90
41694;DHT22;27377;50.666;9.150;2022-10-16T14:36:28;16.30;99.90
41694;DHT22;27377;50.666;9.150;2022-10-16T14:41:29;16.30;99.90
41694;DHT22;27377;50.666;9.150;2022-10-16T14:43:58;16.30;99.90
41694;DHT22;27377;50.666;9.150;2022-10-16T14:46:35;16.30;99.90
41694;DHT22;27377;50.666;9.150;2022-10-16T14:51:37;16.40;99.90
41694;DHT22;27377;50.666;9.150;2022-10-16T14:54:03;16.40;99.90
41694;DHT22;27377;50.666;9.150;2022-10-16T14:56:32;16.40;99.90
41694;DHT22;27377;50.666;9.150;2022-10-16T14:59:00;16.40;99.90
41694;DHT22;27377;50.666;9.150;2022-10-16T15:01:26;16.40;99.90
41694;DHT22;27377;50.666;9.150;2022-10-16T15:03:51;16.40;99.90
41694;DHT22;27377;50.666;9.150;2022-10-16T15:06:20;16.40;99.90
41694;DHT22;27377;50.666;9.150;2022-10-16T15:08:47;16.40;99.90
41694;DHT22;27377;50.666;9.150;2022-10-16T15:11:17;16.40;99.90
41694;DHT22;27377;50.666;9.150;2022-10-16T15:13:44;16.40;99.90
41694;DHT22;27377;50.666;9.150;2022-10-16T15:16:15;16.40;99.90
41694;DHT22;27377;50.666;9.150;2022-10-16T15:18:42;16.40;99.90
41694;DHT22;27377;50.666;9.150;2022-10-16T15:21:08;16.40;99.90
41694;DHT22;27377;50.666;9.150;2022-10-16T15:23:36;16.40;99.90
41694;DHT22;27377;50.666;9.150;2022-10-16T15:26:04;16.40;99.90
41694;DHT22;27377;50.666;9.150;2022-10-16T15:28:29;16.40;99.90
41694;DHT22;27377;50.666;9.150;2022-10-16T15:30:56;16.40;99.90
41694;DHT22;27377;50.666;9.150;2022-10-16T15:33:27;16.40;99.90
41694;DHT22;27377;50.666;9.150;2022-10-16T15:35:55;16.40;99.90
41694;DHT22;27377;50.666;9.150;2022-10-16T15:38:22;16.40;99.90
41694;DHT22;27377;50.666;9.150;2022-10-16T15:40:48;16.40;99.90
41694;DHT22;27377;50.666;9.150;2022-10-16T15:43:14;16.40;99.90
41694;DHT22;27377;50.666;9.150;2022-10-16T15:45:40;16.40;99.90
41694;DHT22;27377;50.666;9.150;2022-10-16T15:48:08;16.40;99.90
41694;DHT22;27377;50.666;9.150;2022-10-16T15:50:37;16.40;99.90
41694;DHT22;27377;50.666;9.150;2022-10-16T15:53:02;16.40;99.90
41694;DHT22;27377;50.666;9.150;2022-10-16T15:55:28;16.30;99.90
41694;DHT22;27377;50.666;9.150;2022-10-16T15:57:54;16.30;99.90
41694;DHT22;27377;50.666;9.150;2022-10-16T16:00:19;16.30;99.90
41694;DHT22;27377;50.666;9.150;2022-10-16T16:02:52;16.30;99.90
41694;DHT22;27377;50.666;9.150;2022-10-16T16:05:18;16.30;99.90
41694;DHT22;27377;50.666;9.150;2022-10-16T16:07:44;16.30;99.90
41694;DHT22;27377;50.666;9.150;2022-10-16T16:10:11;16.30;99.90
41694;DHT22;27377;50.666;9.150;2022-10-16T16:12:37;16.20;99.90
41694;DHT22;27377;50.666;9.150;2022-10-16T16:15:04;16.20;99.90
41694;DHT22;27377;50.666;9.150;2022-10-16T16:17:31;16.20;99.90
41694;DHT22;27377;50.666;9.150;2022-10-16T16:19:57;16.20;99.90
41694;DHT22;27377;50.666;9.150;2022-10-16T16:22:23;16.20;99.90
41694;DHT22;27377;50.666;9.150;2022-10-16T16:24:48;16.10;99.90
41694;DHT22;27377;50.666;9.150;2022-10-16T16:27:14;16.10;99.90
41694;DHT22;27377;50.666;9.150;2022-10-16T16:29:39;16.10;99.90
41694;DHT22;27377;50.666;9.150;2022-10-16T16:32:05;16.10;99.90
41694;DHT22;27377;50.666;9.150;2022-10-16T16:34:30;16.00;99.90
41694;DHT22;27377;50.666;9.150;2022-10-16T16:36:56;16.00;99.90
41694;DHT22;27377;50.666;9.150;2022-10-16T16:39:22;16.00;99.90
41694;DHT22;27377;50.666;9.150;2022-10-16T16:41:48;15.90;99.90
41694;DHT22;27377;50.666;9.150;2022-10-16T16:44:15;15.90;99.90
41694;DHT22;27377;50.666;9.150;2022-10-16T16:46:42;15.90;99.90
41694;DHT22;27377;50.666;9.150;2022-10-16T16:49:10;15.80;99.90
41694;DHT22;27377;50.666;9.150;2022-10-16T16:51:37;15.80;99.90
41694;DHT22;27377;50.666;9.150;2022-10-16T16:54:03;15.80;99.90
41694;DHT22;27377;50.666;9.150;2022-10-16T16:56:29;15.70;99.90
41694;DHT22;27377;50.666;9.150;2022-10-16T16:58:55;15.70;99.90
41694;DHT22;27377;50.666;9.150;2022-10-16T17:01:26;15.70;99.90
41694;DHT22;27377;50.666;9.150;2022-10-16T17:03:55;15.70;99.90
41694;DHT22;27377;50.666;9.150;2022-10-16T17:06:23;15.70;99.90
41694;DHT22;27377;50.666;9.150;2022-10-16T17:08:50;15.60;99.90
41694;DHT22;27377;50.666;9.150;2022-10-16T17:11:18;15.60;99.90
41694;DHT22;27377;50.666;9.150;2022-10-16T17:13:44;15.60;99.90
41694;DHT22;27377;50.666;9.150;2022-10-16T17:16:10;15.60;99.90
41694;DHT22;27377;50.666;9.150;2022-10-16T17:18:36;15.60;99.90
41694;DHT22;27377;50.666;9.150;2022-10-16T17:21:05;15.50;99.90
41694;DHT22;27377;50.666;9.150;2022-10-16T17:23:32;15.50;99.90
41694;DHT22;27377;50.666;9.150;2022-10-16T17:26:03;15.50;99.90
41694;DHT22;27377;50.666;9.150;2022-10-16T17:28:29;15.50;99.90